Time;durP1;ratioP1;P1;durP2;ratioP2;P2;SDS_P1;SDS_P2;PMS_P1;PMS_P2;Temp;Humidity;BMP_temperature;BMP_pressure;BME280_temperature;BME280_humidity;BME280_pressure;Samples;Min_cycle;Max_cycle;Signal;HPM_P1;HPM_P2
2022/10/08 00:00:58;;;;;;;0.85;0.77;;;;;;;16.01;100.00;100953.41;5112044;28;20229;-72
2022/10/08 00:03:28;;;;;;;0.80;0.80;;;;;;;16.00;100.00;100948.13;5113591;28;20198;-72
2022/10/08 00:05:56;;;;;;;1.45;0.88;;;;;;;16.03;100.00;100956.88;5111752;28;20208;-72
2022/10/08 00:08:26;;;;;;;1.65;0.95;;;;;;;15.97;100.00;100943.78;5113504;28;20194;-73
2022/10/08 00:10:54;;;;;;;0.73;0.73;;;;;;;15.92;100.00;100940.25;5113300;28;20212;-72
2022/10/08 00:13:21;;;;;;;1.60;0.90;;;;;;;15.85;100.00;100943.66;5111681;28;20193;-72
2022/10/08 00:15:48;;;;;;;1.65;0.93;;;;;;;15.67;100.00;100914.75;5112014;28;20205;-72
2022/10/08 00:18:15;;;;;;;0.73;0.73;;;;;;;15.80;100.00;100938.41;5076008;28;20237;-72
2022/10/08 00:20:42;;;;;;;0.68;0.63;;;;;;;15.79;100.00;100935.78;5103736;28;20229;-72
2022/10/08 00:23:09;;;;;;;1.20;0.90;;;;;;;15.72;100.00;100926.16;5093475;28;20241;-73
2022/10/08 00:25:41;;;;;;;2.03;1.02;;;;;;;15.76;100.00;100900.03;5093211;28;20210;-72
2022/10/08 00:28:08;;;;;;;2.13;0.98;;;;;;;15.78;100.00;100932.28;5093353;28;20292;-73
2022/10/08 00:30:36;;;;;;;1.13;0.82;;;;;;;15.72;100.00;100915.69;5073689;28;20201;-73
2022/10/08 00:33:03;;;;;;;0.82;0.75;;;;;;;15.73;100.00;100918.28;5080038;28;20197;-72
2022/10/08 00:35:30;;;;;;;1.48;0.90;;;;;;;15.74;100.00;100932.25;5112546;28;20202;-72
2022/10/08 00:37:57;;;;;;;1.73;1.00;;;;;;;15.67;100.00;100918.25;5089237;28;20677;-72
2022/10/08 00:40:24;;;;;;;1.08;0.90;;;;;;;15.67;100.00;100925.22;5057145;28;20736;-72
2022/10/08 00:42:52;;;;;;;1.77;1.00;;;;;;;15.70;100.00;100923.50;5093016;28;20651;-72
2022/10/08 00:45:19;;;;;;;1.40;0.90;;;;;;;15.52;100.00;100919.91;5092610;28;20198;-72
2022/10/08 00:47:48;;;;;;;2.80;0.90;;;;;;;15.63;100.00;100926.94;5108920;28;20198;-72
2022/10/08 00:50:22;;;;;;;1.38;0.90;;;;;;;15.55;100.00;100905.13;5095833;28;20225;-72
2022/10/08 00:52:53;;;;;;;1.50;0.80;;;;;;;15.40;100.00;100899.72;5106955;28;20658;-72
2022/10/08 00:55:25;;;;;;;2.30;1.00;;;;;;;15.01;100.00;100832.31;5094397;28;20205;-72
2022/10/08 00:57:55;;;;;;;2.47;1.00;;;;;;;15.10;100.00;100874.19;5093521;28;20198;-73
2022/10/08 01:00:26;;;;;;;1.88;1.05;;;;;;;15.37;100.00;100913.59;5093708;28;20233;-72
2022/10/08 01:02:53;;;;;;;2.33;0.93;;;;;;;15.24;100.00;100909.16;5092476;28;20339;-73
2022/10/08 01:05:34;;;;;;;2.92;1.10;;;;;;;15.29;100.00;100910.06;5092545;28;20677;-72
2022/10/08 01:08:10;;;;;;;1.35;0.85;;;;;;;15.24;100.00;100913.50;5092447;28;20621;-72
2022/10/08 01:10:45;;;;;;;1.00;0.90;;;;;;;15.17;100.00;100903.84;5092115;28;20198;-73
2022/10/08 01:13:24;;;;;;;1.00;0.77;;;;;;;15.18;100.00;100909.09;5110845;28;20265;-73
2022/10/08 01:16:00;;;;;;;0.70;0.70;;;;;;;15.13;100.00;100900.34;5062289;28;20285;-73
2022/10/08 01:18:38;;;;;;;1.33;0.90;;;;;;;15.01;100.00;100874.09;5071845;28;20198;-73
2022/10/08 01:21:10;;;;;;;1.02;0.80;;;;;;;15.06;100.00;100898.53;5075387;28;20701;-72
2022/10/08 01:23:59;;;;;;;2.28;1.05;;;;;;;15.02;100.00;100877.59;5106734;27;20210;-73
2022/10/08 01:26:47;;;;;;;1.33;0.90;;;;;;;15.05;100.00;100886.34;5091936;28;20714;-72
2022/10/08 01:29:21;;;;;;;1.58;0.90;;;;;;;15.08;100.00;100891.59;5091826;28;20217;-73
2022/10/08 01:31:52;;;;;;;1.23;0.80;;;;;;;15.06;100.00;100890.69;5087925;28;20281;-73
2022/10/08 01:34:26;;;;;;;1.13;0.80;;;;;;;15.10;100.00;100894.19;5102345;28;20293;-72
2022/10/08 01:36:57;;;;;;;0.98;0.80;;;;;;;15.10;100.00;100884.63;5091656;28;20201;-73
2022/10/08 01:39:29;;;;;;;1.42;0.85;;;;;;;15.15;100.00;100888.19;5099819;28;20219;-72
2022/10/08 01:41:56;;;;;;;0.80;0.80;;;;;;;15.03;100.00;100885.44;5111645;28;20225;-72
2022/10/08 01:44:31;;;;;;;0.85;0.80;;;;;;;15.14;100.00;100896.88;5102926;28;20673;-72
2022/10/08 01:47:00;;;;;;;1.63;0.98;;;;;;;15.09;100.00;100893.31;5091575;28;20284;-72
2022/10/08 01:49:32;;;;;;;2.20;1.05;;;;;;;15.01;100.00;100884.56;5092561;28;20198;-72
2022/10/08 01:52:04;;;;;;;1.23;0.88;;;;;;;15.16;100.00;100900.34;5109548;28;20229;-72
2022/10/08 01:54:33;;;;;;;0.70;0.70;;;;;;;15.16;100.00;100902.97;5090893;28;20688;-73
2022/10/08 01:57:04;;;;;;;2.70;1.10;;;;;;;15.19;100.00;100904.75;5097324;28;20202;-72
2022/10/08 01:59:37;;;;;;;2.40;1.00;;;;;;;15.23;100.00;100902.16;5093855;28;20194;-72
2022/10/08 02:02:10;;;;;;;1.02;0.80;;;;;;;14.86;100.00;100826.94;5097195;28;20221;-73
2022/10/08 02:04:37;;;;;;;1.00;0.80;;;;;;;15.15;100.00;100903.84;5110431;28;20574;-72
2022/10/08 02:07:08;;;;;;;0.88;0.80;;;;;;;15.30;100.00;100909.19;5093061;28;20205;-72
2022/10/08 02:09:37;;;;;;;1.00;0.90;;;;;;;15.27;100.00;100898.72;5092232;28;20198;-72
2022/10/08 02:12:05;;;;;;;0.70;0.70;;;;;;;15.23;100.00;100896.94;5092139;28;20208;-72
2022/10/08 02:14:37;;;;;;;1.08;0.80;;;;;;;15.26;100.00;100897.00;5100071;28;20189;-72
2022/10/08 02:17:17;;;;;;;0.82;0.80;;;;;;;15.10;100.00;100863.72;5111121;28;20201;-72
2022/10/08 02:19:51;;;;;;;0.93;0.80;;;;;;;15.25;100.00;100890.00;5098964;28;20202;-72
2022/10/08 02:22:21;;;;;;;0.70;0.70;;;;;;;15.14;100.00;100886.41;5106757;28;20335;-73
2022/10/08 02:24:52;;;;;;;0.90;0.77;;;;;;;15.10;100.00;100868.97;5093612;28;20205;-72
2022/10/08 02:27:27;;;;;;;2.45;0.98;;;;;;;15.24;100.00;100883.03;5097592;28;20630;-73
2022/10/08 02:30:05;;;;;;;0.77;0.77;;;;;;;15.27;100.00;100880.44;5111033;28;20246;-73
2022/10/08 02:32:36;;;;;;;1.52;0.98;;;;;;;15.22;100.00;100889.09;5101256;28;20263;-72
2022/10/08 02:35:10;;;;;;;1.13;0.85;;;;;;;15.23;100.00;100885.63;5068246;28;20212;-72
2022/10/08 02:37:41;;;;;;;3.10;1.20;;;;;;;14.85;100.00;100822.59;5111058;28;20205;-73
2022/10/08 02:40:12;;;;;;;1.40;0.90;;;;;;;15.19;100.00;100879.50;5092957;28;20205;-73
2022/10/08 02:42:43;;;;;;;1.38;0.98;;;;;;;15.14;100.00;100881.19;5090958;28;20208;-73
2022/10/08 02:45:16;;;;;;;1.35;0.90;;;;;;;14.83;100.00;100847.81;5104503;28;20280;-72
2022/10/08 02:47:46;;;;;;;1.20;0.90;;;;;;;15.11;100.00;100883.78;5092298;28;20210;-73
2022/10/08 02:50:18;;;;;;;0.90;0.77;;;;;;;15.13;100.00;100879.44;5109681;28;20241;-72
2022/10/08 02:52:46;;;;;;;1.50;0.90;;;;;;;15.09;100.00;100888.09;5070753;28;20194;-73
2022/10/08 02:55:23;;;;;;;1.35;0.80;;;;;;;15.09;100.00;100872.41;5099046;28;20258;-72
2022/10/08 02:57:56;;;;;;;0.80;0.80;;;;;;;15.13;100.00;100895.09;5109149;28;20692;-73
2022/10/08 03:00:31;;;;;;;0.70;0.70;;;;;;;15.03;100.00;100892.38;5054912;28;20209;-73
2022/10/08 03:03:06;;;;;;;1.55;0.90;;;;;;;14.93;100.00;100886.22;5090850;28;20297;-73
2022/10/08 03:05:33;;;;;;;0.75;0.75;;;;;;;14.75;100.00;100891.22;5106373;28;20254;-72
2022/10/08 03:08:03;;;;;;;0.70;0.70;;;;;;;14.69;100.00;100875.50;5110651;28;20208;-73
2022/10/08 03:10:30;;;;;;;1.15;0.90;;;;;;;14.69;100.00;100878.13;5108133;28;20202;-72
2022/10/08 03:13:00;;;;;;;0.70;0.70;;;;;;;14.78;100.00;100870.38;5090662;28;20210;-72
2022/10/08 03:15:30;;;;;;;1.55;1.00;;;;;;;14.75;100.00;100868.63;5104257;28;20197;-72
2022/10/08 03:17:58;;;;;;;1.70;0.90;;;;;;;14.67;100.00;100872.00;5097102;28;20191;-71
2022/10/08 03:20:25;;;;;;;0.73;0.73;;;;;;;14.45;100.00;100850.00;5095465;28;20279;-71
2022/10/08 03:22:54;;;;;;;1.25;0.82;;;;;;;14.59;100.00;100868.44;5095261;28;20201;-73
2022/10/08 03:25:21;;;;;;;1.25;0.80;;;;;;;14.41;100.00;100868.22;5108529;28;20194;-73
2022/10/08 03:27:50;;;;;;;0.75;0.75;;;;;;;14.52;100.00;100872.69;5078891;28;20702;-72
2022/10/08 03:30:17;;;;;;;0.70;0.70;;;;;;;14.47;100.00;100878.72;5094636;28;20205;-72
2022/10/08 03:32:45;;;;;;;1.25;0.90;;;;;;;14.51;100.00;100875.31;5094188;28;20198;-72
2022/10/08 03:35:12;;;;;;;1.45;0.95;;;;;;;14.36;100.00;100876.88;5094219;28;20211;-72
2022/10/08 03:37:39;;;;;;;0.80;0.80;;;;;;;14.29;100.00;100881.94;5094174;28;20198;-72
2022/10/08 03:40:10;;;;;;;1.00;0.77;;;;;;;14.38;100.00;100867.31;5094005;28;20198;-73
2022/10/08 03:42:37;;;;;;;0.95;0.82;;;;;;;14.22;100.00;100873.19;5093860;28;20225;-73
2022/10/08 03:45:04;;;;;;;1.05;0.82;;;;;;;14.17;100.00;100867.00;5076303;28;20195;-72
2022/10/08 03:47:31;;;;;;;1.55;0.93;;;;;;;14.07;100.00;100862.53;5111660;28;20201;-72
2022/10/08 03:49:59;;;;;;;1.15;0.80;;;;;;;13.98;100.00;100838.09;5106865;28;20210;-72
2022/10/08 03:52:26;;;;;;;0.80;0.80;;;;;;;13.96;100.00;100853.69;5074709;28;20196;-72
2022/10/08 03:54:53;;;;;;;1.25;0.88;;;;;;;13.94;100.00;100859.75;5103448;28;20198;-72
2022/10/08 03:57:20;;;;;;;1.05;0.80;;;;;;;13.85;100.00;100865.69;5110486;28;20616;-72
2022/10/08 03:59:47;;;;;;;0.70;0.70;;;;;;;13.80;100.00;100856.97;5058054;28;20202;-72
2022/10/08 04:02:13;;;;;;;0.73;0.70;;;;;;;13.70;100.00;100845.50;5094793;28;20222;-72
2022/10/08 04:04:40;;;;;;;2.15;0.93;;;;;;;13.76;100.00;100850.81;5101120;28;20189;-72
2022/10/08 04:07:08;;;;;;;1.52;1.00;;;;;;;13.91;100.00;100860.59;5112378;27;20201;-72
2022/10/08 04:09:35;;;;;;;0.70;0.70;;;;;;;13.76;100.00;100857.75;5113503;28;20625;-72
2022/10/08 04:12:02;;;;;;;1.45;0.93;;;;;;;13.76;100.00;100865.56;5112019;28;20605;-72
2022/10/08 04:14:28;;;;;;;1.02;0.85;;;;;;;13.68;100.00;100849.81;5113469;28;20202;-72
2022/10/08 04:16:55;;;;;;;1.15;0.90;;;;;;;13.54;100.00;100829.63;5104936;28;20258;-72
2022/10/08 04:19:22;;;;;;;1.05;0.82;;;;;;;13.65;100.00;100848.91;5106103;28;20205;-72
2022/10/08 04:21:49;;;;;;;0.73;0.73;;;;;;;13.68;100.00;100851.56;5111270;28;20222;-72
2022/10/08 04:24:17;;;;;;;1.75;0.90;;;;;;;13.57;100.00;100827.06;5093577;28;20189;-72
2022/10/08 04:26:43;;;;;;;1.52;0.90;;;;;;;13.62;100.00;100861.91;5101889;28;20194;-71
2022/10/08 04:29:11;;;;;;;2.00;1.05;;;;;;;13.59;100.00;100854.03;5109469;28;20224;-72
2022/10/08 04:31:39;;;;;;;1.48;0.90;;;;;;;13.67;100.00;100861.09;5109854;28;20205;-72
2022/10/08 04:34:05;;;;;;;1.80;0.90;;;;;;;13.64;100.00;100862.78;5093126;28;20328;-72
2022/10/08 04:36:32;;;;;;;1.83;1.00;;;;;;;13.65;100.00;100862.81;5100005;28;20197;-71
2022/10/08 04:38:59;;;;;;;1.23;0.88;;;;;;;13.69;100.00;100868.94;5112610;28;20668;-72
2022/10/08 04:41:27;;;;;;;2.15;0.95;;;;;;;13.68;100.00;100842.00;5113153;28;20626;-71
2022/10/08 04:43:58;;;;;;;0.98;0.80;;;;;;;13.78;100.00;100858.66;5112966;28;20204;-72
2022/10/08 04:46:25;;;;;;;1.00;0.80;;;;;;;13.77;100.00;100854.28;5089082;28;20609;-71
2022/10/08 04:48:53;;;;;;;1.52;0.90;;;;;;;13.84;100.00;100846.56;5105443;28;20217;-76
2022/10/08 04:51:22;;;;;;;2.70;1.13;;;;;;;14.02;100.00;100847.69;5111743;28;20701;-71
2022/10/08 04:53:49;;;;;;;2.85;1.20;;;;;;;14.07;100.00;100857.31;5093404;28;20195;-72
2022/10/08 04:56:18;;;;;;;1.05;0.80;;;;;;;14.19;100.00;100867.94;5102676;28;20199;-73
2022/10/08 04:58:47;;;;;;;2.10;1.00;;;;;;;14.05;100.00;100843.41;5036909;28;20729;-74
2022/10/08 05:01:17;;;;;;;0.70;0.70;;;;;;;14.27;100.00;100873.22;5104098;28;20229;-73
2022/10/08 05:03:46;;;;;;;0.75;0.70;;;;;;;14.27;100.00;100860.16;5093349;28;20209;-73
2022/10/08 05:06:13;;;;;;;1.17;0.90;;;;;;;14.32;100.00;100869.81;5100734;28;20238;-73
2022/10/08 05:08:40;;;;;;;1.30;0.90;;;;;;;14.21;100.00;100845.34;5091978;28;20285;-74
2022/10/08 05:11:07;;;;;;;1.70;0.90;;;;;;;14.34;100.00;100849.88;5061426;28;20205;-74
2022/10/08 05:13:34;;;;;;;0.82;0.77;;;;;;;14.44;100.00;100860.44;5108924;28;20204;-70
2022/10/08 05:16:05;;;;;;;0.70;0.70;;;;;;;14.52;100.00;100840.53;5096660;28;20209;-73
2022/10/08 05:18:32;;;;;;;1.13;1.00;;;;;;;14.61;100.00;100871.94;5055874;28;20202;-75
2022/10/08 05:21:03;;;;;;;1.15;0.75;;;;;;;14.81;100.00;100875.63;5091758;28;20257;-72
2022/10/08 05:23:30;;;;;;;1.52;0.90;;;;;;;14.74;100.00;100876.41;5091691;28;20679;-73
2022/10/08 05:25:56;;;;;;;1.10;0.82;;;;;;;14.84;100.00;100870.44;5102956;28;20213;-73
2022/10/08 05:28:23;;;;;;;0.70;0.70;;;;;;;14.89;100.00;100863.53;5089395;28;20621;-73
2022/10/08 05:30:50;;;;;;;1.90;0.90;;;;;;;14.82;100.00;100831.28;5087875;28;20198;-72
2022/10/08 05:33:18;;;;;;;0.95;0.85;;;;;;;15.21;100.00;100874.28;5091858;28;20617;-74
2022/10/08 05:35:45;;;;;;;0.95;0.80;;;;;;;15.16;100.00;100866.38;5090988;28;20198;-68
2022/10/08 05:38:12;;;;;;;0.80;0.80;;;;;;;15.31;100.00;100876.09;5076684;28;20202;-73
2022/10/08 05:40:38;;;;;;;0.70;0.70;;;;;;;15.26;100.00;100852.56;5093659;28;20213;-73
2022/10/08 05:43:05;;;;;;;1.42;1.00;;;;;;;15.32;100.00;100849.13;5091474;28;20226;-72
2022/10/08 05:45:32;;;;;;;0.70;0.70;;;;;;;15.64;100.00;100884.25;5090010;28;20198;-72
2022/10/08 05:47:59;;;;;;;1.00;0.90;;;;;;;15.76;100.00;100880.84;5091477;28;20193;-73
2022/10/08 05:50:27;;;;;;;0.82;0.80;;;;;;;16.13;100.00;100880.19;5092598;28;20684;-72
2022/10/08 05:52:54;;;;;;;2.75;2.00;;;;;;;16.21;100.00;100888.97;5091145;28;20209;-72
2022/10/08 05:55:20;;;;;;;1.95;0.90;;;;;;;16.33;100.00;100889.03;5090828;28;20198;-72
2022/10/08 05:57:47;;;;;;;0.80;0.80;;;;;;;16.38;100.00;100857.63;5091148;28;20210;-70
2022/10/08 06:00:15;;;;;;;0.80;0.80;;;;;;;16.73;100.00;100883.97;5091164;28;20206;-71
2022/10/08 06:02:41;;;;;;;1.15;0.80;;;;;;;16.63;100.00;100882.19;5079995;28;20663;-72
2022/10/08 06:05:08;;;;;;;1.10;0.88;;;;;;;16.87;100.00;100898.00;5094307;28;20201;-72
2022/10/08 06:07:37;;;;;;;2.38;1.02;;;;;;;17.01;100.00;100890.16;5093953;28;20206;-72
2022/10/08 06:10:04;;;;;;;1.27;0.82;;;;;;;16.82;100.00;100895.34;5093176;28;20194;-70
2022/10/08 06:12:31;;;;;;;2.40;1.00;;;;;;;16.80;100.00;100865.63;5090856;28;20732;-77
2022/10/08 06:14:58;;;;;;;0.85;0.80;;;;;;;16.96;100.00;100895.38;5100109;28;20254;-72
2022/10/08 06:17:24;;;;;;;0.75;0.75;;;;;;;17.07;100.00;100911.13;5102004;28;20198;-73
2022/10/08 06:19:51;;;;;;;0.77;0.70;;;;;;;17.05;100.00;100918.97;5090840;28;20247;-76
2022/10/08 06:22:18;;;;;;;0.90;0.82;;;;;;;16.96;100.00;100913.72;5090606;28;20230;-74
2022/10/08 06:24:46;;;;;;;1.00;0.82;;;;;;;17.00;100.00;100912.84;5096728;28;20205;-73
2022/10/08 06:27:13;;;;;;;0.80;0.80;;;;;;;16.83;100.00;100909.31;5060462;28;20360;-75
2022/10/08 06:29:40;;;;;;;0.75;0.75;;;;;;;16.80;100.00;100888.38;5076757;28;20202;-75
2022/10/08 06:32:06;;;;;;;1.65;1.00;;;;;;;17.05;100.00;100918.97;5098012;28;20219;-73
2022/10/08 06:34:33;;;;;;;0.90;0.70;;;;;;;17.10;100.00;100927.72;5091719;28;20206;-74
2022/10/08 06:37:00;;;;;;;0.70;0.70;;;;;;;16.99;100.00;100932.06;5081150;28;20210;-73
2022/10/08 06:39:27;;;;;;;1.45;0.95;;;;;;;16.31;100.00;100856.72;5086077;28;20206;-73
2022/10/08 06:41:55;;;;;;;1.58;0.82;;;;;;;16.81;100.00;100913.66;5057356;28;20225;-73
2022/10/08 06:44:22;;;;;;;2.15;1.02;;;;;;;16.75;100.00;100927.63;5096033;28;20225;-73
2022/10/08 06:46:48;;;;;;;0.80;0.80;;;;;;;16.94;100.00;100925.94;5080902;28;20627;-73
2022/10/08 06:49:17;;;;;;;1.45;0.80;;;;;;;17.40;100.00;100899.81;5097304;28;20696;-73
2022/10/08 06:51:43;;;;;;;4.18;1.23;;;;;;;17.57;100.00;100924.31;5094118;28;20316;-74
2022/10/08 06:54:10;;;;;;;1.70;0.90;;;;;;;17.64;100.00;100920.81;5094479;28;20209;-73
2022/10/08 06:56:38;;;;;;;0.80;0.80;;;;;;;17.63;100.00;100927.78;5093721;28;20210;-74
2022/10/08 06:59:07;;;;;;;1.30;0.90;;;;;;;17.46;100.00;100923.41;5094402;28;20654;-75
2022/10/08 07:01:34;;;;;;;0.73;0.73;;;;;;;17.43;100.00;100933.88;5098179;28;20620;-74
2022/10/08 07:04:02;;;;;;;0.60;0.60;;;;;;;17.43;100.00;100928.63;5095081;28;20209;-74
2022/10/08 07:06:29;;;;;;;2.70;1.05;;;;;;;17.43;100.00;100926.03;5094055;28;20581;-73
2022/10/08 07:08:57;;;;;;;1.98;0.80;;;;;;;17.44;100.00;100912.03;5094703;28;20209;-73
2022/10/08 07:11:25;;;;;;;1.63;0.98;;;;;;;17.51;100.00;100925.16;5097255;28;20198;-74
2022/10/08 07:13:53;;;;;;;2.75;1.10;;;;;;;17.62;100.00;100933.91;5094280;28;20222;-74
2022/10/08 07:16:23;;;;;;;2.40;0.95;;;;;;;17.78;100.00;100927.81;5094012;28;20646;-75
2022/10/08 07:18:52;;;;;;;0.75;0.70;;;;;;;17.77;100.00;100927.78;5094465;28;20557;-74
2022/10/08 07:21:21;;;;;;;0.60;0.60;;;;;;;17.83;100.00;100927.81;5089427;28;20206;-74
2022/10/08 07:23:48;;;;;;;1.00;0.80;;;;;;;17.91;100.00;100933.88;5094563;28;20229;-72
2022/10/08 07:26:17;;;;;;;2.47;1.00;;;;;;;17.84;100.00;100929.53;5094534;28;20213;-74
2022/10/08 07:28:49;;;;;;;2.17;1.00;;;;;;;17.88;100.00;100927.78;5094350;28;20670;-74
2022/10/08 07:31:18;;;;;;;2.35;0.98;;;;;;;18.05;100.00;100929.50;5094295;28;20201;-75
2022/10/08 07:33:46;;;;;;;4.63;1.15;;;;;;;18.18;100.00;100919.88;5094690;28;20293;-76
2022/10/08 07:36:14;;;;;;;1.40;0.85;;;;;;;17.82;100.00;100842.09;5094449;28;20731;-76
2022/10/08 07:38:42;;;;;;;3.60;1.08;;;;;;;17.82;100.00;100891.94;5092261;28;20199;-75
2022/10/08 07:41:10;;;;;;;5.20;1.30;;;;;;;18.02;100.00;100916.38;5094370;28;20203;-76
2022/10/08 07:43:39;;;;;;;2.67;1.00;;;;;;;17.96;100.00;100881.41;5094406;28;20237;-75
2022/10/08 07:46:07;;;;;;;1.27;0.80;;;;;;;18.26;100.00;100891.84;5094084;28;20289;-75
2022/10/08 07:48:34;;;;;;;1.00;0.80;;;;;;;18.41;100.00;100890.91;5093812;28;20201;-76
2022/10/08 07:51:08;;;;;;;1.70;0.80;;;;;;;18.75;100.00;100917.06;5093596;28;20226;-76
2022/10/08 07:53:35;;;;;;;2.17;0.80;;;;;;;18.70;100.00;100915.31;5093369;28;20205;-75
2022/10/08 07:56:02;;;;;;;1.55;0.90;;;;;;;18.87;100.00;100905.56;5093954;28;20191;-75
2022/10/08 07:58:29;;;;;;;1.00;0.80;;;;;;;18.79;100.00;100917.91;5094417;28;20300;-76
2022/10/08 08:00:56;;;;;;;1.17;0.80;;;;;;;18.91;100.00;100909.94;5094253;28;20198;-75
2022/10/08 08:03:24;;;;;;;2.00;1.00;;;;;;;19.06;100.00;100908.97;5093948;28;20320;-75
2022/10/08 08:05:52;;;;;;;1.20;0.75;;;;;;;18.96;100.00;100908.19;5094189;28;20220;-75
2022/10/08 08:08:22;;;;;;;3.28;1.00;;;;;;;18.96;100.00;100902.91;5093880;28;20289;-75
2022/10/08 08:10:49;;;;;;;1.95;0.90;;;;;;;18.98;100.00;100903.75;5093661;28;20251;-75
2022/10/08 08:13:15;;;;;;;2.22;0.93;;;;;;;18.89;100.00;100903.84;5093831;28;20202;-76
2022/10/08 08:15:42;;;;;;;1.45;0.80;;;;;;;18.92;100.00;100895.94;5093537;28;20198;-75
2022/10/08 08:18:09;;;;;;;1.35;0.80;;;;;;;18.97;100.00;100894.16;5093404;28;20205;-76
2022/10/08 08:20:36;;;;;;;1.75;0.85;;;;;;;19.10;100.00;100898.44;5093417;28;20202;-76
2022/10/08 08:23:03;;;;;;;1.20;0.80;;;;;;;19.31;100.00;100892.16;5093388;28;20299;-74
2022/10/08 08:25:32;;;;;;;1.50;0.85;;;;;;;19.54;100.00;100894.63;5093425;28;20277;-76
2022/10/08 08:27:59;;;;;;;0.90;0.75;;;;;;;19.50;100.00;100887.66;5093310;28;20209;-76
2022/10/08 08:30:26;;;;;;;1.45;0.80;;;;;;;19.58;100.00;100891.09;5093141;28;20209;-75
2022/10/08 08:32:53;;;;;;;1.30;0.80;;;;;;;19.51;100.00;100885.00;5093154;28;20198;-75
2022/10/08 08:35:19;;;;;;;2.20;0.93;;;;;;;19.67;100.00;100888.38;5092946;28;20692;-76
2022/10/08 08:37:47;;;;;;;1.33;0.82;;;;;;;19.71;99.11;100895.34;5093231;28;20209;-76
2022/10/08 08:40:14;;;;;;;3.00;1.02;;;;;;;19.76;95.64;100891.78;5057474;28;20198;-76
2022/10/08 08:42:53;;;;;;;0.75;0.75;;;;;;;19.91;92.86;100887.25;5092812;28;20233;-75
2022/10/08 08:45:28;;;;;;;1.65;0.98;;;;;;;20.02;90.07;100893.28;5092924;28;20226;-76
2022/10/08 08:48:01;;;;;;;1.55;0.88;;;;;;;19.95;90.80;100857.38;5092917;28;20189;-75
2022/10/08 08:50:32;;;;;;;2.08;0.93;;;;;;;20.15;87.57;100885.25;5057383;28;20236;-74
2022/10/08 08:53:00;;;;;;;1.92;1.00;;;;;;;19.71;85.73;100826.94;5092594;28;20198;-75
2022/10/08 08:55:34;;;;;;;2.50;1.05;;;;;;;20.22;85.42;100884.31;5092777;28;20206;-75
2022/10/08 08:58:13;;;;;;;1.58;1.00;;;;;;;20.03;84.21;100830.09;5092626;28;20221;-76
2022/10/08 09:00:41;;;;;;;1.05;0.80;;;;;;;20.34;84.07;100882.41;5105032;28;20255;-74
2022/10/08 09:03:18;;;;;;;1.35;0.80;;;;;;;20.24;82.47;100856.16;5094645;28;20218;-76
2022/10/08 09:05:48;;;;;;;2.95;1.15;;;;;;;20.18;83.52;100850.97;5102181;28;20286;-73
2022/10/08 09:08:18;;;;;;;3.35;1.90;;;;;;;20.41;85.75;100873.56;5091053;28;20198;-73
2022/10/08 09:10:51;;;;;;;2.15;0.90;;;;;;;20.54;87.17;100864.63;5106201;28;20221;-75
2022/10/08 09:13:24;;;;;;;2.63;1.00;;;;;;;20.68;85.68;100875.84;5094976;28;20202;-73
2022/10/08 09:15:54;;;;;;;1.05;0.80;;;;;;;20.69;85.80;100870.53;5104977;28;20260;-76
2022/10/08 09:18:21;;;;;;;2.90;1.00;;;;;;;20.84;84.67;100858.91;5053688;28;20906;-78
2022/10/08 09:20:48;;;;;;;3.72;1.13;;;;;;;20.77;83.96;100862.53;5094740;28;20220;-75
2022/10/08 09:23:17;;;;;;;1.85;0.80;;;;;;;20.84;83.17;100853.63;5112172;28;20225;-79
2022/10/08 09:25:49;;;;;;;5.35;2.88;;;;;;;21.06;82.27;100852.44;5077199;28;20202;-78
2022/10/08 09:28:40;;;;;;;2.25;0.90;;;;;;;21.30;80.80;100852.97;5091931;28;20226;-78
2022/10/08 09:31:30;;;;;;;1.13;0.80;;;;;;;21.34;78.53;100854.63;5092334;28;20585;-79
2022/10/08 09:34:07;;;;;;;1.75;0.90;;;;;;;21.21;76.69;100854.88;5048599;28;20229;-79
2022/10/08 09:36:40;;;;;;;0.82;0.68;;;;;;;21.12;77.58;100833.00;5047431;28;20744;-79
2022/10/08 09:39:17;;;;;;;3.03;1.10;;;;;;;21.12;77.53;100844.44;5068158;28;20207;-77
2022/10/08 09:41:44;;;;;;;2.20;0.93;;;;;;;20.96;75.69;100821.81;5051188;28;20606;-76
2022/10/08 09:44:16;;;;;;;3.20;1.63;;;;;;;21.07;78.69;100840.13;5048292;28;20235;-79
2022/10/08 09:46:43;;;;;;;2.45;0.98;;;;;;;21.08;79.15;100841.88;5048555;28;20196;-75
2022/10/08 09:49:28;;;;;;;2.30;0.90;;;;;;;21.27;76.59;100806.41;5049001;28;20203;-76
2022/10/08 09:51:58;;;;;;;1.23;0.80;;;;;;;21.55;75.32;100835.81;5057890;28;20253;-76
2022/10/08 09:54:27;;;;;;;1.95;1.08;;;;;;;21.33;77.59;100826.53;5068220;28;20713;-75
2022/10/08 09:56:56;;;;;;;1.08;0.90;;;;;;;21.36;78.63;100821.22;5054404;28;20223;-74
2022/10/08 09:59:27;;;;;;;1.90;1.08;;;;;;;21.45;77.09;100832.47;5047994;28;20210;-76
2022/10/08 10:01:55;;;;;;;2.85;1.08;;;;;;;21.73;79.66;100827.56;5046054;28;20207;-74
2022/10/08 10:04:31;;;;;;;1.55;0.80;;;;;;;21.57;73.97;100803.22;5047803;28;20752;-74
2022/10/08 10:06:59;;;;;;;1.85;0.98;;;;;;;21.79;73.46;100822.19;5042095;28;20208;-74
2022/10/08 10:09:34;;;;;;;0.85;0.73;;;;;;;21.60;74.43;100805.81;5026748;28;20204;-76
2022/10/08 10:12:06;;;;;;;2.65;1.00;;;;;;;21.61;74.45;100794.34;5091535;28;20271;-75
2022/10/08 10:14:43;;;;;;;1.75;0.90;;;;;;;21.70;72.76;100770.41;5071500;28;20207;-75
2022/10/08 10:17:16;;;;;;;2.25;0.90;;;;;;;21.83;71.84;100789.50;5088653;28;20284;-75
2022/10/08 10:19:49;;;;;;;1.80;0.90;;;;;;;21.87;71.40;100803.56;5090554;28;20201;-73
2022/10/08 10:22:21;;;;;;;2.28;0.90;;;;;;;21.96;70.52;100801.63;5087333;28;20212;-74
2022/10/08 10:24:57;;;;;;;2.28;0.90;;;;;;;21.94;68.75;100794.63;5070297;28;20237;-73
2022/10/08 10:27:31;;;;;;;1.80;1.00;;;;;;;21.98;73.14;100791.88;5092715;28;20201;-74
2022/10/08 10:30:06;;;;;;;1.45;0.80;;;;;;;22.20;72.28;100785.25;5092984;27;20205;-76
2022/10/08 10:32:38;;;;;;;2.28;0.90;;;;;;;22.10;70.50;100775.78;5093559;28;20687;-75
2022/10/08 10:35:12;;;;;;;2.13;1.92;;;;;;;21.83;70.07;100781.59;5073497;28;20213;-74
2022/10/08 10:37:47;;;;;;;1.45;0.77;;;;;;;21.65;69.49;100693.06;5080007;28;20577;-75
2022/10/08 10:40:34;;;;;;;4.95;1.20;;;;;;;22.18;68.52;100747.44;5092384;28;20197;-75
2022/10/08 10:43:14;;;;;;;1.02;0.82;;;;;;;22.40;67.16;100757.53;5076938;28;20230;-76
2022/10/08 10:45:45;;;;;;;2.55;0.80;;;;;;;22.35;67.42;100762.03;5091090;28;20204;-74
2022/10/08 10:48:14;;;;;;;1.00;0.80;;;;;;;22.31;67.03;100747.16;5091624;28;20558;-75
2022/10/08 10:50:48;;;;;;;2.15;0.93;;;;;;;22.40;67.39;100757.53;5090569;28;20233;-75
2022/10/08 10:53:22;;;;;;;0.85;0.75;;;;;;;21.82;66.80;100679.53;5058295;28;20209;-74
2022/10/08 10:55:59;;;;;;;1.65;0.95;;;;;;;22.34;67.71;100750.59;5090473;28;20209;-75
2022/10/08 10:58:45;;;;;;;1.17;0.90;;;;;;;22.51;65.83;100737.88;5083418;28;20637;-74
2022/10/08 11:01:24;;;;;;;2.22;1.00;;;;;;;22.62;65.15;100741.13;5090624;28;20657;-75
2022/10/08 11:04:00;;;;;;;0.90;0.73;;;;;;;22.45;65.36;100734.50;5079898;28;20221;-75
2022/10/08 11:06:57;;;;;;;2.40;1.17;;;;;;;22.56;64.84;100727.19;5095015;28;20220;-74
2022/10/08 11:09:38;;;;;;;0.90;0.80;;;;;;;22.60;66.06;100724.44;5089598;28;20217;-74
2022/10/08 11:12:19;;;;;;;1.58;0.90;;;;;;;22.53;63.70;100679.69;5090034;28;20221;-74
2022/10/08 11:14:57;;;;;;;2.50;1.00;;;;;;;22.73;63.94;100722.41;5099887;28;20205;-75
2022/10/08 11:17:41;;;;;;;2.88;1.10;;;;;;;23.04;63.86;100709.28;5047570;28;20690;-75
2022/10/08 11:20:36;;;;;;;3.95;1.15;;;;;;;22.94;63.16;100698.06;5097525;28;20243;-74
2022/10/08 11:23:11;;;;;;;2.00;1.20;;;;;;;23.12;61.43;100707.28;5027427;28;20197;-74
2022/10/08 11:25:45;;;;;;;1.65;0.82;;;;;;;23.21;58.30;100694.69;5014955;28;20197;-74
2022/10/08 11:28:24;;;;;;;0.77;0.77;;;;;;;23.42;59.74;100685.34;5019356;28;20604;-74
2022/10/08 11:31:04;;;;;;;2.88;1.02;;;;;;;23.34;58.40;100675.81;5021393;28;20197;-73
2022/10/08 11:33:32;;;;;;;0.85;0.80;;;;;;;23.41;59.08;100675.66;5012673;28;20213;-75